ENKB/KSU METAR and TAF weather

Enter ICAO airport designator
Station Type Date Time Source
ENKB METAR 2022/10/01 08:20 UTC NOAA

ENKB 010820Z VRB05KT CAVOK 13/04 Q0991 RMK WIND 745FT 15015KT


Station Type Date Time Source
ENKB Decoded METAR 2022/10/01 08:20 UTC NOAA

Kristiansund / Kvernberget, Norway (ENKB) 63-07N 007-50E 62M
Oct 01, 2022 - 04:20 AM EDT / 2022.10.01 0820 UTC
Wind: Variable at 6 MPH (5 KT):0
Visibility: greater than 7 mile(s):0
Temperature: 55 F (13 C)
Dew Point: 39 F (4 C)
Relative Humidity: 54%
Pressure (altimeter): 29.26 in. Hg (0991 hPa)
ob: ENKB 010820Z VRB05KT CAVOK 13/04 Q0991 RMK WIND 745FT 15015KT
cycle: 8

Station Type Date Time Source
ENKB TAF 2010/02/05 07:50 UTC NOAA

METAR ENKB 050750Z 15011KT 110V200 9999 SCT055 BKN070 03/M05 Q1007

Example: see airport list